sensor_id;sensor_type;location;lat;lon;timestamp;P1;durP1;ratioP1;P2;durP2;ratioP2
41343;SDS011;27089;50.022;7.604;2022-09-09T00:00:18;4.90;;;1.40;;
41343;SDS011;27089;50.022;7.604;2022-09-09T00:02:49;6.20;;;1.57;;
41343;SDS011;27089;50.022;7.604;2022-09-09T00:05:27;4.67;;;1.13;;
41343;SDS011;27089;50.022;7.604;2022-09-09T00:08:00;3.30;;;1.40;;
41343;SDS011;27089;50.022;7.604;2022-09-09T00:10:31;2.80;;;1.20;;
41343;SDS011;27089;50.022;7.604;2022-09-09T00:13:02;4.37;;;1.40;;
41343;SDS011;27089;50.022;7.604;2022-09-09T00:15:43;3.90;;;1.60;;
41343;SDS011;27089;50.022;7.604;2022-09-09T00:18:20;4.20;;;1.20;;
41343;SDS011;27089;50.022;7.604;2022-09-09T00:20:52;5.00;;;1.47;;
41343;SDS011;27089;50.022;7.604;2022-09-09T00:23:25;2.77;;;1.30;;
41343;SDS011;27089;50.022;7.604;2022-09-09T00:25:56;2.77;;;1.30;;
41343;SDS011;27089;50.022;7.604;2022-09-09T00:28:33;3.40;;;1.30;;
41343;SDS011;27089;50.022;7.604;2022-09-09T00:31:08;5.87;;;1.40;;
41343;SDS011;27089;50.022;7.604;2022-09-09T00:33:40;7.30;;;1.80;;
41343;SDS011;27089;50.022;7.604;2022-09-09T00:36:10;4.97;;;1.20;;
41343;SDS011;27089;50.022;7.604;2022-09-09T00:38:42;4.50;;;1.30;;
41343;SDS011;27089;50.022;7.604;2022-09-09T00:41:13;4.17;;;1.30;;
41343;SDS011;27089;50.022;7.604;2022-09-09T00:43:46;3.90;;;1.17;;
41343;SDS011;27089;50.022;7.604;2022-09-09T00:46:26;3.13;;;1.17;;
41343;SDS011;27089;50.022;7.604;2022-09-09T00:49:32;3.30;;;1.23;;
41343;SDS011;27089;50.022;7.604;2022-09-09T00:52:13;7.80;;;1.50;;
41343;SDS011;27089;50.022;7.604;2022-09-09T00:54:52;3.73;;;1.20;;
41343;SDS011;27089;50.022;7.604;2022-09-09T00:57:28;3.70;;;1.50;;
41343;SDS011;27089;50.022;7.604;2022-09-09T00:59:57;2.40;;;1.43;;
41343;SDS011;27089;50.022;7.604;2022-09-09T01:02:43;5.40;;;1.73;;
41343;SDS011;27089;50.022;7.604;2022-09-09T01:05:27;3.53;;;1.60;;
41343;SDS011;27089;50.022;7.604;2022-09-09T01:08:00;3.20;;;1.40;;
41343;SDS011;27089;50.022;7.604;2022-09-09T01:10:30;7.80;;;1.83;;
41343;SDS011;27089;50.022;7.604;2022-09-09T01:13:11;4.97;;;1.70;;
41343;SDS011;27089;50.022;7.604;2022-09-09T01:15:45;4.70;;;1.50;;
41343;SDS011;27089;50.022;7.604;2022-09-09T01:18:14;4.60;;;1.70;;
41343;SDS011;27089;50.022;7.604;2022-09-09T01:20:47;4.67;;;1.63;;
41343;SDS011;27089;50.022;7.604;2022-09-09T01:23:32;2.87;;;1.73;;
41343;SDS011;27089;50.022;7.604;2022-09-09T01:26:13;3.57;;;1.70;;
41343;SDS011;27089;50.022;7.604;2022-09-09T01:28:46;4.60;;;1.80;;
41343;SDS011;27089;50.022;7.604;2022-09-09T01:31:15;4.03;;;1.73;;
41343;SDS011;27089;50.022;7.604;2022-09-09T01:33:45;4.50;;;2.00;;
41343;SDS011;27089;50.022;7.604;2022-09-09T01:36:14;5.17;;;2.07;;
41343;SDS011;27089;50.022;7.604;2022-09-09T01:38:51;6.57;;;1.80;;
41343;SDS011;27089;50.022;7.604;2022-09-09T01:41:20;5.73;;;1.90;;
41343;SDS011;27089;50.022;7.604;2022-09-09T01:43:47;6.07;;;2.50;;
41343;SDS011;27089;50.022;7.604;2022-09-09T01:46:15;4.53;;;2.13;;
41343;SDS011;27089;50.022;7.604;2022-09-09T01:48:43;3.20;;;1.77;;
41343;SDS011;27089;50.022;7.604;2022-09-09T01:51:14;3.90;;;1.67;;
41343;SDS011;27089;50.022;7.604;2022-09-09T01:53:40;5.10;;;2.10;;
41343;SDS011;27089;50.022;7.604;2022-09-09T01:56:12;5.40;;;1.67;;
41343;SDS011;27089;50.022;7.604;2022-09-09T02:01:36;6.47;;;2.10;;
41343;SDS011;27089;50.022;7.604;2022-09-09T02:04:16;6.60;;;2.07;;
41343;SDS011;27089;50.022;7.604;2022-09-09T02:06:52;6.07;;;2.00;;
41343;SDS011;27089;50.022;7.604;2022-09-09T02:09:23;4.63;;;1.97;;
41343;SDS011;27089;50.022;7.604;2022-09-09T02:11:53;5.67;;;1.57;;
41343;SDS011;27089;50.022;7.604;2022-09-09T02:14:27;4.80;;;1.80;;
41343;SDS011;27089;50.022;7.604;2022-09-09T02:16:59;5.53;;;1.90;;
41343;SDS011;27089;50.022;7.604;2022-09-09T02:19:31;5.23;;;1.90;;
41343;SDS011;27089;50.022;7.604;2022-09-09T02:22:01;5.57;;;1.83;;
41343;SDS011;27089;50.022;7.604;2022-09-09T02:24:29;4.90;;;1.70;;
41343;SDS011;27089;50.022;7.604;2022-09-09T02:26:59;7.03;;;1.70;;
41343;SDS011;27089;50.022;7.604;2022-09-09T02:29:33;5.23;;;1.43;;
41343;SDS011;27089;50.022;7.604;2022-09-09T02:32:03;5.70;;;1.63;;
41343;SDS011;27089;50.022;7.604;2022-09-09T02:34:33;4.53;;;1.90;;
41343;SDS011;27089;50.022;7.604;2022-09-09T02:37:02;3.57;;;1.90;;
41343;SDS011;27089;50.022;7.604;2022-09-09T02:39:30;5.47;;;2.07;;
41343;SDS011;27089;50.022;7.604;2022-09-09T02:41:57;3.47;;;1.50;;
41343;SDS011;27089;50.022;7.604;2022-09-09T02:44:24;3.83;;;1.60;;
41343;SDS011;27089;50.022;7.604;2022-09-09T02:47:03;5.83;;;1.50;;
41343;SDS011;27089;50.022;7.604;2022-09-09T02:49:44;7.00;;;1.93;;
41343;SDS011;27089;50.022;7.604;2022-09-09T02:52:24;3.50;;;1.80;;
41343;SDS011;27089;50.022;7.604;2022-09-09T02:54:57;4.67;;;1.67;;
41343;SDS011;27089;50.022;7.604;2022-09-09T02:57:40;4.27;;;1.80;;
41343;SDS011;27089;50.022;7.604;2022-09-09T03:00:11;6.43;;;1.70;;
41343;SDS011;27089;50.022;7.604;2022-09-09T03:02:39;5.77;;;1.50;;
41343;SDS011;27089;50.022;7.604;2022-09-09T03:05:07;5.60;;;1.87;;
41343;SDS011;27089;50.022;7.604;2022-09-09T03:07:34;4.63;;;1.63;;
41343;SDS011;27089;50.022;7.604;2022-09-09T03:10:01;5.73;;;1.90;;
41343;SDS011;27089;50.022;7.604;2022-09-09T03:12:29;5.33;;;1.70;;
41343;SDS011;27089;50.022;7.604;2022-09-09T03:14:56;6.97;;;1.80;;
41343;SDS011;27089;50.022;7.604;2022-09-09T03:17:23;4.33;;;1.90;;
41343;SDS011;27089;50.022;7.604;2022-09-09T03:19:54;5.03;;;2.20;;
41343;SDS011;27089;50.022;7.604;2022-09-09T03:22:23;4.00;;;1.70;;
41343;SDS011;27089;50.022;7.604;2022-09-09T03:24:51;4.40;;;1.80;;
41343;SDS011;27089;50.022;7.604;2022-09-09T03:27:18;5.20;;;2.03;;
41343;SDS011;27089;50.022;7.604;2022-09-09T03:29:45;4.63;;;1.67;;
41343;SDS011;27089;50.022;7.604;2022-09-09T03:32:15;5.57;;;1.90;;
41343;SDS011;27089;50.022;7.604;2022-09-09T03:34:42;6.13;;;1.60;;
41343;SDS011;27089;50.022;7.604;2022-09-09T03:37:11;2.90;;;1.40;;
41343;SDS011;27089;50.022;7.604;2022-09-09T03:39:38;5.70;;;1.50;;
41343;SDS011;27089;50.022;7.604;2022-09-09T03:42:05;4.53;;;1.70;;
41343;SDS011;27089;50.022;7.604;2022-09-09T03:44:32;4.03;;;1.73;;
41343;SDS011;27089;50.022;7.604;2022-09-09T03:46:59;3.23;;;1.70;;
41343;SDS011;27089;50.022;7.604;2022-09-09T03:49:26;4.60;;;1.30;;
41343;SDS011;27089;50.022;7.604;2022-09-09T03:51:54;3.60;;;1.80;;
41343;SDS011;27089;50.022;7.604;2022-09-09T03:54:22;4.10;;;1.40;;
41343;SDS011;27089;50.022;7.604;2022-09-09T03:56:50;4.80;;;1.60;;
41343;SDS011;27089;50.022;7.604;2022-09-09T03:59:17;3.00;;;1.50;;
41343;SDS011;27089;50.022;7.604;2022-09-09T04:01:44;4.47;;;1.90;;
41343;SDS011;27089;50.022;7.604;2022-09-09T04:04:12;6.03;;;1.43;;
41343;SDS011;27089;50.022;7.604;2022-09-09T04:06:39;7.70;;;1.60;;
41343;SDS011;27089;50.022;7.604;2022-09-09T04:09:06;6.10;;;1.73;;
41343;SDS011;27089;50.022;7.604;2022-09-09T04:11:34;6.03;;;1.50;;
41343;SDS011;27089;50.022;7.604;2022-09-09T04:14:02;5.27;;;1.63;;
41343;SDS011;27089;50.022;7.604;2022-09-09T04:16:29;3.30;;;1.60;;
41343;SDS011;27089;50.022;7.604;2022-09-09T04:18:56;4.50;;;1.33;;
41343;SDS011;27089;50.022;7.604;2022-09-09T04:21:24;3.93;;;1.60;;
41343;SDS011;27089;50.022;7.604;2022-09-09T04:23:51;5.17;;;1.60;;
41343;SDS011;27089;50.022;7.604;2022-09-09T04:26:19;3.90;;;1.60;;
41343;SDS011;27089;50.022;7.604;2022-09-09T04:28:47;3.53;;;1.47;;
41343;SDS011;27089;50.022;7.604;2022-09-09T04:31:15;3.20;;;1.50;;
41343;SDS011;27089;50.022;7.604;2022-09-09T04:33:45;4.20;;;1.60;;
41343;SDS011;27089;50.022;7.604;2022-09-09T04:36:12;3.83;;;1.37;;
41343;SDS011;27089;50.022;7.604;2022-09-09T04:38:39;4.83;;;1.47;;
41343;SDS011;27089;50.022;7.604;2022-09-09T04:41:09;4.87;;;1.90;;
41343;SDS011;27089;50.022;7.604;2022-09-09T04:43:37;4.00;;;1.70;;
41343;SDS011;27089;50.022;7.604;2022-09-09T04:46:05;5.17;;;2.30;;
41343;SDS011;27089;50.022;7.604;2022-09-09T04:48:33;3.10;;;1.80;;
41343;SDS011;27089;50.022;7.604;2022-09-09T04:51:00;4.87;;;1.83;;
41343;SDS011;27089;50.022;7.604;2022-09-09T04:53:29;4.47;;;2.10;;
41343;SDS011;27089;50.022;7.604;2022-09-09T04:56:00;5.43;;;1.93;;
41343;SDS011;27089;50.022;7.604;2022-09-09T04:58:29;4.40;;;2.20;;
41343;SDS011;27089;50.022;7.604;2022-09-09T05:01:02;4.90;;;2.10;;
41343;SDS011;27089;50.022;7.604;2022-09-09T05:03:31;4.43;;;1.90;;
41343;SDS011;27089;50.022;7.604;2022-09-09T05:06:02;5.77;;;2.20;;
41343;SDS011;27089;50.022;7.604;2022-09-09T05:08:34;5.73;;;2.00;;
41343;SDS011;27089;50.022;7.604;2022-09-09T05:11:02;6.17;;;2.30;;
41343;SDS011;27089;50.022;7.604;2022-09-09T05:13:29;6.37;;;2.10;;
41343;SDS011;27089;50.022;7.604;2022-09-09T05:15:57;7.03;;;1.93;;
41343;SDS011;27089;50.022;7.604;2022-09-09T05:18:24;4.37;;;2.23;;
41343;SDS011;27089;50.022;7.604;2022-09-09T05:20:56;5.77;;;2.20;;
41343;SDS011;27089;50.022;7.604;2022-09-09T05:23:25;7.77;;;2.00;;
41343;SDS011;27089;50.022;7.604;2022-09-09T05:25:56;5.20;;;2.00;;
41343;SDS011;27089;50.022;7.604;2022-09-09T05:28:23;4.80;;;1.73;;
41343;SDS011;27089;50.022;7.604;2022-09-09T05:30:55;3.60;;;1.60;;
41343;SDS011;27089;50.022;7.604;2022-09-09T05:33:23;5.07;;;1.50;;
41343;SDS011;27089;50.022;7.604;2022-09-09T05:35:56;4.30;;;1.33;;
41343;SDS011;27089;50.022;7.604;2022-09-09T05:38:24;2.40;;;1.40;;
41343;SDS011;27089;50.022;7.604;2022-09-09T05:40:51;3.67;;;1.40;;
41343;SDS011;27089;50.022;7.604;2022-09-09T05:43:18;4.17;;;1.30;;
41343;SDS011;27089;50.022;7.604;2022-09-09T05:45:46;5.60;;;1.47;;
41343;SDS011;27089;50.022;7.604;2022-09-09T05:48:13;4.10;;;1.50;;
41343;SDS011;27089;50.022;7.604;2022-09-09T05:50:41;5.23;;;1.77;;
41343;SDS011;27089;50.022;7.604;2022-09-09T05:53:10;2.70;;;1.30;;
41343;SDS011;27089;50.022;7.604;2022-09-09T05:55:37;4.70;;;1.70;;
41343;SDS011;27089;50.022;7.604;2022-09-09T05:58:04;8.40;;;1.70;;
41343;SDS011;27089;50.022;7.604;2022-09-09T06:00:31;3.53;;;1.67;;
41343;SDS011;27089;50.022;7.604;2022-09-09T06:02:58;4.13;;;1.43;;
41343;SDS011;27089;50.022;7.604;2022-09-09T06:05:25;3.60;;;1.40;;
41343;SDS011;27089;50.022;7.604;2022-09-09T06:07:53;3.47;;;1.50;;
41343;SDS011;27089;50.022;7.604;2022-09-09T06:10:22;3.63;;;1.27;;
41343;SDS011;27089;50.022;7.604;2022-09-09T06:12:52;5.27;;;1.43;;
41343;SDS011;27089;50.022;7.604;2022-09-09T06:15:19;4.13;;;1.40;;
41343;SDS011;27089;50.022;7.604;2022-09-09T06:17:46;4.23;;;1.47;;
41343;SDS011;27089;50.022;7.604;2022-09-09T06:20:14;4.97;;;1.60;;
41343;SDS011;27089;50.022;7.604;2022-09-09T06:22:41;3.80;;;1.60;;
41343;SDS011;27089;50.022;7.604;2022-09-09T06:25:08;4.63;;;1.40;;
41343;SDS011;27089;50.022;7.604;2022-09-09T06:27:37;4.23;;;1.63;;
41343;SDS011;27089;50.022;7.604;2022-09-09T06:30:04;4.23;;;1.40;;
41343;SDS011;27089;50.022;7.604;2022-09-09T06:32:32;4.37;;;1.30;;
41343;SDS011;27089;50.022;7.604;2022-09-09T06:35:01;3.43;;;1.37;;
41343;SDS011;27089;50.022;7.604;2022-09-09T06:37:29;4.70;;;1.60;;
41343;SDS011;27089;50.022;7.604;2022-09-09T06:39:56;5.27;;;1.67;;
41343;SDS011;27089;50.022;7.604;2022-09-09T06:42:23;4.70;;;1.53;;
41343;SDS011;27089;50.022;7.604;2022-09-09T06:44:51;3.87;;;1.30;;
41343;SDS011;27089;50.022;7.604;2022-09-09T06:47:18;5.50;;;1.60;;
41343;SDS011;27089;50.022;7.604;2022-09-09T06:49:45;4.30;;;1.60;;
41343;SDS011;27089;50.022;7.604;2022-09-09T06:52:12;5.13;;;1.70;;
41343;SDS011;27089;50.022;7.604;2022-09-09T06:54:39;2.87;;;1.30;;
41343;SDS011;27089;50.022;7.604;2022-09-09T06:57:06;4.13;;;1.00;;
41343;SDS011;27089;50.022;7.604;2022-09-09T06:59:33;4.00;;;1.20;;
41343;SDS011;27089;50.022;7.604;2022-09-09T07:02:01;5.87;;;1.57;;
41343;SDS011;27089;50.022;7.604;2022-09-09T07:04:28;3.63;;;1.17;;
41343;SDS011;27089;50.022;7.604;2022-09-09T07:06:56;4.83;;;1.80;;
41343;SDS011;27089;50.022;7.604;2022-09-09T07:09:23;5.07;;;1.57;;
41343;SDS011;27089;50.022;7.604;2022-09-09T07:11:52;2.80;;;1.30;;
41343;SDS011;27089;50.022;7.604;2022-09-09T07:14:19;3.50;;;1.43;;
41343;SDS011;27089;50.022;7.604;2022-09-09T07:16:47;4.70;;;1.33;;
41343;SDS011;27089;50.022;7.604;2022-09-09T07:19:15;3.43;;;1.50;;
41343;SDS011;27089;50.022;7.604;2022-09-09T07:21:42;3.27;;;1.30;;
41343;SDS011;27089;50.022;7.604;2022-09-09T07:24:10;5.63;;;1.27;;
41343;SDS011;27089;50.022;7.604;2022-09-09T07:26:38;5.47;;;1.50;;
41343;SDS011;27089;50.022;7.604;2022-09-09T07:29:05;6.27;;;1.70;;
41343;SDS011;27089;50.022;7.604;2022-09-09T07:31:33;4.50;;;1.20;;
41343;SDS011;27089;50.022;7.604;2022-09-09T07:34:01;5.33;;;1.60;;
41343;SDS011;27089;50.022;7.604;2022-09-09T07:36:31;4.73;;;1.40;;
41343;SDS011;27089;50.022;7.604;2022-09-09T07:39:00;4.83;;;1.27;;
41343;SDS011;27089;50.022;7.604;2022-09-09T07:41:30;5.10;;;1.40;;
41343;SDS011;27089;50.022;7.604;2022-09-09T07:44:03;4.63;;;1.40;;
41343;SDS011;27089;50.022;7.604;2022-09-09T07:46:31;3.70;;;1.37;;
41343;SDS011;27089;50.022;7.604;2022-09-09T07:48:59;7.10;;;1.33;;
41343;SDS011;27089;50.022;7.604;2022-09-09T07:51:27;4.47;;;1.40;;
41343;SDS011;27089;50.022;7.604;2022-09-09T07:53:57;4.13;;;1.20;;
41343;SDS011;27089;50.022;7.604;2022-09-09T07:56:27;4.70;;;1.43;;
41343;SDS011;27089;50.022;7.604;2022-09-09T07:58:55;3.93;;;1.30;;
41343;SDS011;27089;50.022;7.604;2022-09-09T08:01:25;6.70;;;1.47;;
41343;SDS011;27089;50.022;7.604;2022-09-09T08:03:54;4.77;;;1.40;;
41343;SDS011;27089;50.022;7.604;2022-09-09T08:06:24;8.30;;;1.33;;
41343;SDS011;27089;50.022;7.604;2022-09-09T08:08:51;6.30;;;1.50;;
41343;SDS011;27089;50.022;7.604;2022-09-09T08:11:22;6.63;;;1.85;;
41343;SDS011;27089;50.022;7.604;2022-09-09T08:13:50;6.10;;;1.20;;
41343;SDS011;27089;50.022;7.604;2022-09-09T08:16:18;3.58;;;1.30;;
41343;SDS011;27089;50.022;7.604;2022-09-09T08:18:47;7.45;;;1.80;;
41343;SDS011;27089;50.022;7.604;2022-09-09T08:21:15;4.65;;;1.40;;
41343;SDS011;27089;50.022;7.604;2022-09-09T08:23:44;7.10;;;1.73;;
41343;SDS011;27089;50.022;7.604;2022-09-09T08:26:13;6.60;;;1.55;;
41343;SDS011;27089;50.022;7.604;2022-09-09T08:28:42;3.95;;;1.48;;
41343;SDS011;27089;50.022;7.604;2022-09-09T08:31:10;4.15;;;1.20;;
41343;SDS011;27089;50.022;7.604;2022-09-09T08:33:39;4.55;;;1.20;;
41343;SDS011;27089;50.022;7.604;2022-09-09T08:36:08;4.00;;;1.17;;
41343;SDS011;27089;50.022;7.604;2022-09-09T08:38:36;6.72;;;1.35;;
41343;SDS011;27089;50.022;7.604;2022-09-09T08:41:07;4.57;;;1.25;;
41343;SDS011;27089;50.022;7.604;2022-09-09T08:43:58;2.10;;;0.82;;
41343;SDS011;27089;50.022;7.604;2022-09-09T08:46:32;4.38;;;1.08;;
41343;SDS011;27089;50.022;7.604;2022-09-09T08:49:06;3.97;;;1.10;;
41343;SDS011;27089;50.022;7.604;2022-09-09T08:51:44;2.85;;;1.10;;
41343;SDS011;27089;50.022;7.604;2022-09-09T08:54:12;3.95;;;1.13;;
41343;SDS011;27089;50.022;7.604;2022-09-09T08:56:39;5.50;;;1.38;;
41343;SDS011;27089;50.022;7.604;2022-09-09T08:59:08;4.80;;;1.17;;
41343;SDS011;27089;50.022;7.604;2022-09-09T09:01:44;4.57;;;1.50;;
41343;SDS011;27089;50.022;7.604;2022-09-09T09:04:33;3.97;;;1.00;;
41343;SDS011;27089;50.022;7.604;2022-09-09T09:07:11;3.92;;;1.13;;
41343;SDS011;27089;50.022;7.604;2022-09-09T09:09:50;5.15;;;1.17;;
41343;SDS011;27089;50.022;7.604;2022-09-09T09:12:27;4.32;;;1.20;;
41343;SDS011;27089;50.022;7.604;2022-09-09T09:15:00;4.18;;;1.10;;
41343;SDS011;27089;50.022;7.604;2022-09-09T09:17:27;3.70;;;1.10;;
41343;SDS011;27089;50.022;7.604;2022-09-09T09:19:58;3.25;;;1.25;;
41343;SDS011;27089;50.022;7.604;2022-09-09T09:22:26;2.90;;;1.10;;
41343;SDS011;27089;50.022;7.604;2022-09-09T09:25:00;4.95;;;1.40;;
41343;SDS011;27089;50.022;7.604;2022-09-09T09:27:36;4.07;;;1.00;;
41343;SDS011;27089;50.022;7.604;2022-09-09T09:30:14;5.93;;;1.10;;
41343;SDS011;27089;50.022;7.604;2022-09-09T09:32:49;2.88;;;0.93;;
41343;SDS011;27089;50.022;7.604;2022-09-09T09:35:20;4.68;;;1.08;;
41343;SDS011;27089;50.022;7.604;2022-09-09T09:37:47;3.45;;;0.80;;
41343;SDS011;27089;50.022;7.604;2022-09-09T09:40:15;4.35;;;1.33;;
41343;SDS011;27089;50.022;7.604;2022-09-09T09:42:51;5.32;;;1.20;;
41343;SDS011;27089;50.022;7.604;2022-09-09T09:45:27;5.03;;;1.30;;
41343;SDS011;27089;50.022;7.604;2022-09-09T09:47:59;4.97;;;1.02;;
41343;SDS011;27089;50.022;7.604;2022-09-09T09:50:27;3.03;;;1.00;;
41343;SDS011;27089;50.022;7.604;2022-09-09T09:52:55;5.18;;;1.13;;
41343;SDS011;27089;50.022;7.604;2022-09-09T09:55:23;4.15;;;1.05;;
41343;SDS011;27089;50.022;7.604;2022-09-09T09:57:52;4.38;;;1.20;;
41343;SDS011;27089;50.022;7.604;2022-09-09T10:00:20;2.92;;;1.15;;
41343;SDS011;27089;50.022;7.604;2022-09-09T10:02:50;2.85;;;1.02;;
41343;SDS011;27089;50.022;7.604;2022-09-09T10:05:19;2.30;;;1.05;;
41343;SDS011;27089;50.022;7.604;2022-09-09T10:07:59;3.45;;;1.20;;
41343;SDS011;27089;50.022;7.604;2022-09-09T10:10:36;3.40;;;1.20;;
41343;SDS011;27089;50.022;7.604;2022-09-09T10:13:10;3.67;;;1.20;;
41343;SDS011;27089;50.022;7.604;2022-09-09T10:15:45;5.32;;;1.15;;
41343;SDS011;27089;50.022;7.604;2022-09-09T10:18:30;5.60;;;0.90;;
41343;SDS011;27089;50.022;7.604;2022-09-09T10:21:08;3.67;;;0.82;;
41343;SDS011;27089;50.022;7.604;2022-09-09T10:23:52;5.00;;;1.10;;
41343;SDS011;27089;50.022;7.604;2022-09-09T10:26:43;2.58;;;1.00;;
41343;SDS011;27089;50.022;7.604;2022-09-09T10:29:27;4.68;;;1.20;;
41343;SDS011;27089;50.022;7.604;2022-09-09T10:32:13;4.85;;;1.05;;
41343;SDS011;27089;50.022;7.604;2022-09-09T10:34:59;3.72;;;0.93;;
41343;SDS011;27089;50.022;7.604;2022-09-09T10:37:35;3.50;;;0.82;;
41343;SDS011;27089;50.022;7.604;2022-09-09T10:40:14;6.70;;;1.20;;
41343;SDS011;27089;50.022;7.604;2022-09-09T10:42:52;5.05;;;1.20;;
41343;SDS011;27089;50.022;7.604;2022-09-09T10:45:24;3.92;;;1.08;;
41343;SDS011;27089;50.022;7.604;2022-09-09T10:48:05;3.67;;;1.02;;
41343;SDS011;27089;50.022;7.604;2022-09-09T10:50:52;3.42;;;0.80;;
41343;SDS011;27089;50.022;7.604;2022-09-09T10:53:26;3.20;;;1.05;;
41343;SDS011;27089;50.022;7.604;2022-09-09T10:56:04;4.40;;;1.20;;
41343;SDS011;27089;50.022;7.604;2022-09-09T10:58:35;4.32;;;1.20;;
41343;SDS011;27089;50.022;7.604;2022-09-09T11:01:10;3.80;;;0.93;;
41343;SDS011;27089;50.022;7.604;2022-09-09T11:03:42;2.33;;;0.80;;
41343;SDS011;27089;50.022;7.604;2022-09-09T11:06:15;4.10;;;1.17;;
41343;SDS011;27089;50.022;7.604;2022-09-09T11:08:45;3.75;;;0.93;;
41343;SDS011;27089;50.022;7.604;2022-09-09T11:11:16;4.35;;;1.25;;
41343;SDS011;27089;50.022;7.604;2022-09-09T11:13:47;3.47;;;0.90;;
41343;SDS011;27089;50.022;7.604;2022-09-09T11:16:23;5.13;;;1.13;;
41343;SDS011;27089;50.022;7.604;2022-09-09T11:18:55;2.80;;;0.95;;
41343;SDS011;27089;50.022;7.604;2022-09-09T11:21:29;5.53;;;1.40;;
41343;SDS011;27089;50.022;7.604;2022-09-09T11:24:02;7.05;;;1.38;;
41343;SDS011;27089;50.022;7.604;2022-09-09T11:26:37;3.67;;;1.38;;
41343;SDS011;27089;50.022;7.604;2022-09-09T11:32:09;3.97;;;1.20;;
41343;SDS011;27089;50.022;7.604;2022-09-09T11:35:00;3.03;;;1.00;;
41343;SDS011;27089;50.022;7.604;2022-09-09T11:37:42;3.55;;;1.00;;
41343;SDS011;27089;50.022;7.604;2022-09-09T11:40:22;2.63;;;0.88;;
41343;SDS011;27089;50.022;7.604;2022-09-09T11:43:00;1.85;;;0.60;;
41343;SDS011;27089;50.022;7.604;2022-09-09T11:45:29;2.42;;;0.60;;
41343;SDS011;27089;50.022;7.604;2022-09-09T11:47:57;3.42;;;0.68;;
41343;SDS011;27089;50.022;7.604;2022-09-09T11:50:32;2.47;;;0.63;;
41343;SDS011;27089;50.022;7.604;2022-09-09T11:53:22;3.25;;;0.73;;
41343;SDS011;27089;50.022;7.604;2022-09-09T11:56:02;5.07;;;0.93;;
41343;SDS011;27089;50.022;7.604;2022-09-09T11:58:33;3.85;;;1.13;;
41343;SDS011;27089;50.022;7.604;2022-09-09T12:01:15;3.70;;;0.90;;
41343;SDS011;27089;50.022;7.604;2022-09-09T12:03:55;2.47;;;1.00;;
41343;SDS011;27089;50.022;7.604;2022-09-09T12:06:43;4.35;;;1.00;;
41343;SDS011;27089;50.022;7.604;2022-09-09T12:09:18;4.35;;;1.13;;
41343;SDS011;27089;50.022;7.604;2022-09-09T12:11:49;3.47;;;1.00;;
41343;SDS011;27089;50.022;7.604;2022-09-09T12:14:20;3.88;;;1.15;;
41343;SDS011;27089;50.022;7.604;2022-09-09T12:16:50;4.38;;;1.08;;
41343;SDS011;27089;50.022;7.604;2022-09-09T12:19:18;4.05;;;0.73;;
41343;SDS011;27089;50.022;7.604;2022-09-09T12:21:48;3.03;;;0.95;;
41343;SDS011;27089;50.022;7.604;2022-09-09T12:24:26;4.63;;;1.10;;
41343;SDS011;27089;50.022;7.604;2022-09-09T12:26:59;3.97;;;1.00;;
41343;SDS011;27089;50.022;7.604;2022-09-09T12:29:33;3.05;;;1.10;;
41343;SDS011;27089;50.022;7.604;2022-09-09T12:32:10;3.75;;;1.23;;
41343;SDS011;27089;50.022;7.604;2022-09-09T12:34:39;3.08;;;1.10;;
41343;SDS011;27089;50.022;7.604;2022-09-09T12:37:17;3.40;;;1.00;;
41343;SDS011;27089;50.022;7.604;2022-09-09T12:39:55;2.80;;;1.10;;
41343;SDS011;27089;50.022;7.604;2022-09-09T12:42:23;3.72;;;0.88;;
41343;SDS011;27089;50.022;7.604;2022-09-09T12:44:51;2.45;;;0.90;;
41343;SDS011;27089;50.022;7.604;2022-09-09T12:47:19;2.55;;;0.90;;
41343;SDS011;27089;50.022;7.604;2022-09-09T12:49:48;3.67;;;0.80;;
41343;SDS011;27089;50.022;7.604;2022-09-09T12:52:18;3.72;;;1.08;;
41343;SDS011;27089;50.022;7.604;2022-09-09T12:54:52;2.25;;;0.90;;
41343;SDS011;27089;50.022;7.604;2022-09-09T12:57:23;4.28;;;0.90;;
41343;SDS011;27089;50.022;7.604;2022-09-09T12:59:52;2.80;;;0.95;;
41343;SDS011;27089;50.022;7.604;2022-09-09T13:02:29;6.03;;;1.05;;
41343;SDS011;27089;50.022;7.604;2022-09-09T13:05:05;2.50;;;0.90;;
41343;SDS011;27089;50.022;7.604;2022-09-09T13:07:39;3.40;;;1.30;;
41343;SDS011;27089;50.022;7.604;2022-09-09T13:10:10;5.37;;;1.70;;
41343;SDS011;27089;50.022;7.604;2022-09-09T13:12:39;3.03;;;0.90;;
41343;SDS011;27089;50.022;7.604;2022-09-09T13:15:10;4.03;;;0.80;;
41343;SDS011;27089;50.022;7.604;2022-09-09T13:17:49;1.93;;;0.70;;
41343;SDS011;27089;50.022;7.604;2022-09-09T13:20:21;4.33;;;1.10;;
41343;SDS011;27089;50.022;7.604;2022-09-09T13:22:50;6.30;;;2.00;;
41343;SDS011;27089;50.022;7.604;2022-09-09T13:25:20;3.53;;;1.30;;
41343;SDS011;27089;50.022;7.604;2022-09-09T13:27:59;3.53;;;1.30;;
41343;SDS011;27089;50.022;7.604;2022-09-09T13:30:28;3.63;;;1.33;;
41343;SDS011;27089;50.022;7.604;2022-09-09T13:33:01;5.70;;;1.57;;
41343;SDS011;27089;50.022;7.604;2022-09-09T13:35:29;5.37;;;1.20;;
41343;SDS011;27089;50.022;7.604;2022-09-09T13:37:57;5.37;;;1.20;;
41343;SDS011;27089;50.022;7.604;2022-09-09T13:40:26;2.07;;;0.90;;
41343;SDS011;27089;50.022;7.604;2022-09-09T13:42:54;3.33;;;1.00;;
41343;SDS011;27089;50.022;7.604;2022-09-09T13:45:25;3.80;;;1.10;;
41343;SDS011;27089;50.022;7.604;2022-09-09T13:47:53;3.80;;;1.13;;
41343;SDS011;27089;50.022;7.604;2022-09-09T13:50:21;3.73;;;0.70;;
41343;SDS011;27089;50.022;7.604;2022-09-09T13:52:49;2.27;;;0.70;;
41343;SDS011;27089;50.022;7.604;2022-09-09T13:55:18;3.53;;;1.30;;
41343;SDS011;27089;50.022;7.604;2022-09-09T13:57:51;2.47;;;1.00;;
41343;SDS011;27089;50.022;7.604;2022-09-09T14:00:18;2.07;;;0.80;;
41343;SDS011;27089;50.022;7.604;2022-09-09T14:02:47;4.88;;;1.05;;
41343;SDS011;27089;50.022;7.604;2022-09-09T14:05:15;4.35;;;1.02;;
41343;SDS011;27089;50.022;7.604;2022-09-09T14:07:42;2.83;;;0.82;;
41343;SDS011;27089;50.022;7.604;2022-09-09T14:10:11;2.87;;;1.07;;
41343;SDS011;27089;50.022;7.604;2022-09-09T14:12:38;2.00;;;0.98;;
41343;SDS011;27089;50.022;7.604;2022-09-09T14:15:05;3.70;;;0.90;;
41343;SDS011;27089;50.022;7.604;2022-09-09T14:17:33;3.10;;;0.95;;
41343;SDS011;27089;50.022;7.604;2022-09-09T14:20:03;1.88;;;0.57;;
41343;SDS011;27089;50.022;7.604;2022-09-09T14:22:33;2.25;;;0.60;;
41343;SDS011;27089;50.022;7.604;2022-09-09T14:25:00;2.97;;;0.77;;
41343;SDS011;27089;50.022;7.604;2022-09-09T14:27:27;2.43;;;0.70;;
41343;SDS011;27089;50.022;7.604;2022-09-09T14:29:55;2.20;;;0.80;;
41343;SDS011;27089;50.022;7.604;2022-09-09T14:32:22;2.43;;;0.83;;
41343;SDS011;27089;50.022;7.604;2022-09-09T14:34:49;2.47;;;0.80;;
41343;SDS011;27089;50.022;7.604;2022-09-09T14:37:19;2.87;;;0.70;;
41343;SDS011;27089;50.022;7.604;2022-09-09T14:39:46;1.17;;;0.67;;
41343;SDS011;27089;50.022;7.604;2022-09-09T14:42:15;3.67;;;1.10;;
41343;SDS011;27089;50.022;7.604;2022-09-09T14:44:42;4.00;;;0.70;;
41343;SDS011;27089;50.022;7.604;2022-09-09T14:47:09;3.37;;;0.80;;
41343;SDS011;27089;50.022;7.604;2022-09-09T14:49:36;1.37;;;0.73;;
41343;SDS011;27089;50.022;7.604;2022-09-09T14:52:04;3.50;;;0.67;;
41343;SDS011;27089;50.022;7.604;2022-09-09T14:54:32;2.50;;;0.90;;
41343;SDS011;27089;50.022;7.604;2022-09-09T14:56:59;2.27;;;0.70;;
41343;SDS011;27089;50.022;7.604;2022-09-09T14:59:27;2.30;;;0.80;;
41343;SDS011;27089;50.022;7.604;2022-09-09T15:01:54;3.60;;;1.17;;
41343;SDS011;27089;50.022;7.604;2022-09-09T15:04:21;2.03;;;0.80;;
41343;SDS011;27089;50.022;7.604;2022-09-09T15:06:49;3.47;;;0.90;;
41343;SDS011;27089;50.022;7.604;2022-09-09T15:09:18;2.43;;;0.70;;
41343;SDS011;27089;50.022;7.604;2022-09-09T15:11:46;3.30;;;0.90;;
41343;SDS011;27089;50.022;7.604;2022-09-09T15:14:13;3.10;;;0.87;;
41343;SDS011;27089;50.022;7.604;2022-09-09T15:16:40;2.83;;;0.87;;